Terminal Aerodrome Forecast
Issued by NWS

Home | Current Version | Previous Version | Graphics & Text | Print | Product List | Glossary On
Versions: 1 2 3 4 5 6 7 8 9 10 11 12 13
000
FTUS43 KTOP 190520
TAFFOE
TAF
KFOE 190520Z 1906/2006 33007KT P6SM SCT035
     FM190900 33007KT P6SM SCT012
     FM191100 01009KT P6SM FEW250=

USA.gov is the U.S. government's official web portal to all federal, state and local government web resources and services.